Terminal Aerodrome Forecast
Issued by NWS Kansas City/Pleasant Hill, MO

Home | Current Version | Previous Version | Text Only | Print | Product List | Glossary On
Versions: 1 2 3 4 5 6 7 8 9 10 11 12 13 14
000
FTUS43 KEAX 030800 AAA
TAFMCI
TAF AMD
KMCI 030817Z 0308/0406 07008KT 6SM BR SCT025 BKN045
      TEMPO 0308/0311 5SM BR OVC025
     FM031300 07007KT P6SM SCT030=

USA.gov is the U.S. government's official web portal to all federal, state and local government web resources and services.